Time;durP1;ratioP1;P1;durP2;ratioP2;P2;SDS_P1;SDS_P2;PMS_P1;PMS_P2;Temp;Humidity;BMP_temperature;BMP_pressure;BME280_temperature;BME280_humidity;BME280_pressure;Samples;Min_cycle;Max_cycle;Signal;HPM_P1;HPM_P2
2023/12/23 00:02:00;;;;;;;3.60;1.53;;;;;;;7.81;100.00;153365.50;5000241;28;20464;-83
2023/12/23 00:04:26;;;;;;;1.30;0.90;;;;;;;7.77;100.00;153356.44;5007968;28;20482;-83
2023/12/23 00:06:54;;;;;;;2.00;1.23;;;;;;;7.75;100.00;153349.97;5006747;28;21058;-83
2023/12/23 00:09:21;;;;;;;2.80;1.10;;;;;;;7.71;100.00;153339.63;5016302;28;20469;-83
2023/12/23 00:11:47;;;;;;;3.10;1.37;;;;;;;7.69;100.00;153335.75;4990430;28;20452;-83
2023/12/23 00:14:14;;;;;;;1.43;0.87;;;;;;;7.68;100.00;153331.84;4995779;28;20469;-82
2023/12/23 00:16:40;;;;;;;2.00;1.20;;;;;;;7.66;100.00;153328.00;5006418;28;20510;-82
2023/12/23 00:19:09;;;;;;;1.70;0.97;;;;;;;7.67;100.00;153329.31;4989599;28;20448;-82
2023/12/23 00:21:35;;;;;;;3.00;1.10;;;;;;;7.63;100.00;153318.94;4998245;28;20599;-82
2023/12/23 00:24:03;;;;;;;2.10;1.30;;;;;;;7.66;100.00;153326.72;5016514;28;20976;-82
2023/12/23 00:26:30;;;;;;;2.27;1.10;;;;;;;7.62;100.00;153316.41;5018115;28;20910;-82
2023/12/23 00:28:57;;;;;;;2.03;0.83;;;;;;;7.61;100.00;153313.78;5011441;28;20475;-82
2023/12/23 00:31:24;;;;;;;2.23;1.00;;;;;;;7.68;100.00;153331.84;5012611;28;20480;-82
2023/12/23 00:33:52;;;;;;;1.67;0.90;;;;;;;7.70;100.00;153337.06;4986755;28;20507;-82
2023/12/23 00:36:18;;;;;;;3.03;0.83;;;;;;;7.65;100.00;153324.16;4985308;28;20795;-82
2023/12/23 00:38:45;;;;;;;3.83;1.10;;;;;;;7.64;100.00;153321.56;4992616;28;20452;-81
2023/12/23 00:41:14;;;;;;;2.40;1.20;;;;;;;7.63;100.00;153318.94;4983533;28;20449;-81
2023/12/23 00:43:40;;;;;;;3.80;1.20;;;;;;;7.61;100.00;153313.78;4995919;28;20567;-82
2023/12/23 00:46:07;;;;;;;3.10;1.13;;;;;;;7.63;100.00;153318.94;5006612;28;20794;-81
2023/12/23 00:48:33;;;;;;;1.50;0.93;;;;;;;7.61;100.00;153315.09;5006524;28;20457;-82
2023/12/23 00:51:00;;;;;;;3.20;1.10;;;;;;;7.61;100.00;153313.78;4979126;28;20461;-82
2023/12/23 00:53:27;;;;;;;2.17;1.40;;;;;;;7.59;100.00;153308.63;5006214;28;20207;-82
2023/12/23 00:55:53;;;;;;;2.40;1.07;;;;;;;7.55;100.00;153299.59;5006179;28;20527;-82
2023/12/23 00:58:21;;;;;;;2.00;0.97;;;;;;;7.54;100.00;153295.72;5009428;28;20551;-82
2023/12/23 01:00:48;;;;;;;3.60;1.23;;;;;;;7.51;100.00;153287.97;4987760;28;20469;-82
2023/12/23 01:03:14;;;;;;;2.17;1.10;;;;;;;7.49;100.00;153284.13;5005206;28;20480;-82
2023/12/23 01:05:41;;;;;;;1.30;0.80;;;;;;;7.46;100.00;153276.34;5010259;28;20452;-82
2023/12/23 01:08:07;;;;;;;3.10;1.17;;;;;;;7.47;100.00;153277.63;4990655;28;20452;-82
2023/12/23 01:10:34;;;;;;;2.77;1.40;;;;;;;7.47;100.00;153278.91;5005649;28;20477;-82
2023/12/23 01:13:01;;;;;;;2.13;0.90;;;;;;;7.45;100.00;153272.47;5002165;28;20816;-82
2023/12/23 01:15:29;;;;;;;1.97;0.70;;;;;;;7.48;100.00;153280.22;5009577;28;20483;-81
2023/12/23 01:17:55;;;;;;;2.40;0.87;;;;;;;7.46;100.00;153276.34;5004351;28;20500;-82
2023/12/23 01:20:22;;;;;;;1.80;1.00;;;;;;;7.47;100.00;153277.63;5005635;28;20456;-82
2023/12/23 01:22:48;;;;;;;1.93;0.60;;;;;;;7.46;100.00;153276.34;5009721;28;20460;-82
2023/12/23 01:25:15;;;;;;;1.33;0.67;;;;;;;7.46;100.00;153275.06;4990276;28;20540;-82
2023/12/23 01:27:42;;;;;;;1.37;0.80;;;;;;;7.45;100.00;153272.47;4983222;28;20519;-82
2023/12/23 01:30:09;;;;;;;1.33;0.90;;;;;;;7.46;100.00;153276.34;5003242;28;20560;-82
2023/12/23 01:32:37;;;;;;;1.00;0.63;;;;;;;7.47;100.00;153278.91;4997664;28;20448;-82
2023/12/23 01:35:05;;;;;;;2.03;0.90;;;;;;;7.42;100.00;153266.00;5010478;28;21105;-82
2023/12/23 01:37:31;;;;;;;1.40;0.80;;;;;;;7.38;100.00;153255.69;4971665;28;20460;-82
2023/12/23 01:39:58;;;;;;;2.27;0.83;;;;;;;7.39;100.00;153257.00;4985203;28;20838;-82
2023/12/23 01:42:24;;;;;;;2.33;0.80;;;;;;;7.39;100.00;153257.00;5010249;28;20456;-82
2023/12/23 01:44:51;;;;;;;2.30;0.80;;;;;;;7.34;100.00;153246.63;4980562;28;20471;-82
2023/12/23 01:47:17;;;;;;;3.53;0.93;;;;;;;7.33;100.00;153244.03;4967975;28;20456;-82
2023/12/23 01:49:45;;;;;;;1.40;0.80;;;;;;;7.34;100.00;153246.63;4997716;28;20794;-82
2023/12/23 01:52:12;;;;;;;1.93;0.63;;;;;;;7.32;100.00;153241.47;4998309;28;21006;-82
2023/12/23 01:54:39;;;;;;;1.70;0.83;;;;;;;7.28;100.00;153231.13;4978601;28;20808;-82
2023/12/23 01:57:06;;;;;;;3.20;1.30;;;;;;;7.29;100.00;153233.72;5020402;28;20464;-82
2023/12/23 01:59:32;;;;;;;4.07;1.03;;;;;;;7.29;100.00;153233.72;5004603;28;20452;-82
2023/12/23 02:02:00;;;;;;;2.50;1.17;;;;;;;7.27;100.00;153228.56;5001594;28;20456;-82
2023/12/23 02:04:27;;;;;;;3.50;1.30;;;;;;;7.31;100.00;153237.59;4976649;28;21003;-82
2023/12/23 02:06:55;;;;;;;1.83;1.00;;;;;;;7.31;100.00;153237.59;4986507;28;20556;-82
2023/12/23 02:09:22;;;;;;;2.60;1.37;;;;;;;7.33;100.00;153244.03;4966481;28;20462;-82
2023/12/23 02:11:55;;;;;;;4.23;1.40;;;;;;;7.31;100.00;153238.88;4985503;28;20462;-82
2023/12/23 02:14:27;;;;;;;2.37;1.30;;;;;;;7.30;100.00;153236.34;4970520;28;20454;-82
2023/12/23 02:16:55;;;;;;;5.27;2.03;;;;;;;7.30;100.00;153236.34;4985155;28;20564;-83
2023/12/23 02:19:22;;;;;;;2.87;1.33;;;;;;;7.27;100.00;153228.56;4941114;28;20458;-82
2023/12/23 02:21:50;;;;;;;4.33;1.70;;;;;;;7.28;100.00;153231.13;4977505;28;20555;-82
2023/12/23 02:24:17;;;;;;;4.17;1.60;;;;;;;7.27;100.00;153228.56;4993451;28;20547;-82
2023/12/23 02:26:47;;;;;;;3.00;1.40;;;;;;;7.28;100.00;153231.13;4991229;28;20487;-82
2023/12/23 02:29:14;;;;;;;1.93;1.10;;;;;;;7.30;100.00;153236.34;4982013;28;20460;-82
2023/12/23 02:31:41;;;;;;;2.13;1.40;;;;;;;7.28;100.00;153231.13;4985746;28;20930;-82
2023/12/23 02:34:08;;;;;;;3.20;1.33;;;;;;;7.28;100.00;153231.13;4984657;28;20458;-82
2023/12/23 02:36:34;;;;;;;2.43;1.30;;;;;;;7.28;100.00;153229.88;4955393;28;20475;-82
2023/12/23 02:39:02;;;;;;;2.07;1.10;;;;;;;7.25;100.00;153222.13;4955205;28;21032;-82
2023/12/23 02:41:29;;;;;;;2.40;1.00;;;;;;;7.26;100.00;153225.97;4985576;28;20540;-82
2023/12/23 02:43:56;;;;;;;1.00;0.87;;;;;;;7.26;100.00;153224.66;4996656;28;20472;-82
2023/12/23 02:46:22;;;;;;;4.40;1.00;;;;;;;7.24;100.00;153220.81;4992152;28;20817;-82
2023/12/23 02:48:49;;;;;;;4.23;1.10;;;;;;;7.22;100.00;153215.66;4972839;28;20492;-82
2023/12/23 02:51:15;;;;;;;1.50;0.93;;;;;;;7.23;100.00;153218.22;4951664;28;20465;-83
2023/12/23 02:53:42;;;;;;;1.90;1.00;;;;;;;7.21;100.00;153213.06;4990042;28;20460;-82
2023/12/23 02:56:10;;;;;;;2.87;1.10;;;;;;;7.19;100.00;153207.91;4991652;28;20512;-82
2023/12/23 02:58:36;;;;;;;2.03;0.63;;;;;;;7.21;100.00;153213.06;4975659;28;20457;-82
2023/12/23 03:01:07;;;;;;;3.43;1.13;;;;;;;7.21;100.00;153211.78;4978722;28;20453;-82
2023/12/23 03:03:33;;;;;;;4.57;1.00;;;;;;;7.23;100.00;153218.22;4965440;28;20571;-82
2023/12/23 03:06:00;;;;;;;1.60;0.70;;;;;;;7.24;100.00;153219.53;4990057;28;20461;-82
2023/12/23 03:08:26;;;;;;;3.43;0.80;;;;;;;7.25;100.00;153222.13;5007907;28;21541;-82
2023/12/23 03:10:53;;;;;;;2.93;1.47;;;;;;;7.26;100.00;153224.66;4993190;28;20463;-83
2023/12/23 03:13:21;;;;;;;2.90;1.23;;;;;;;7.22;100.00;153215.66;4991541;28;21010;-82
2023/12/23 03:15:47;;;;;;;1.23;0.90;;;;;;;7.21;100.00;153211.78;5006127;28;20488;-83
2023/12/23 03:18:14;;;;;;;2.80;1.17;;;;;;;7.19;100.00;153207.91;5009626;28;20460;-82
2023/12/23 03:20:40;;;;;;;3.07;1.20;;;;;;;7.20;100.00;153210.47;5008535;28;20491;-82
2023/12/23 03:23:07;;;;;;;1.93;1.20;;;;;;;7.20;100.00;153210.47;5008610;28;20847;-82
2023/12/23 03:25:33;;;;;;;2.30;1.10;;;;;;;7.21;100.00;153213.06;4996791;28;20985;-82
2023/12/23 03:28:00;;;;;;;3.70;1.40;;;;;;;7.24;100.00;153220.81;4986657;28;20461;-82
2023/12/23 03:30:28;;;;;;;1.90;1.30;;;;;;;7.24;100.00;153220.81;5009480;28;21021;-82
2023/12/23 03:32:54;;;;;;;2.90;1.20;;;;;;;7.27;100.00;153227.28;4992787;28;20454;-82
2023/12/23 03:35:21;;;;;;;2.67;1.50;;;;;;;7.25;100.00;153223.38;5010583;28;20456;-82
2023/12/23 03:37:48;;;;;;;3.90;1.57;;;;;;;7.26;100.00;153225.97;5008377;28;20460;-82
2023/12/23 03:40:15;;;;;;;2.70;1.47;;;;;;;7.26;100.00;153224.66;5009648;28;20954;-82
2023/12/23 03:42:41;;;;;;;3.10;1.33;;;;;;;7.22;100.00;153215.66;5016058;28;20463;-81
2023/12/23 03:45:09;;;;;;;3.40;1.00;;;;;;;7.26;100.00;153225.97;4986199;28;20852;-82
2023/12/23 03:47:38;;;;;;;1.80;1.07;;;;;;;7.22;100.00;153214.38;4997805;28;20464;-81
2023/12/23 03:50:05;;;;;;;2.80;1.37;;;;;;;7.21;100.00;153211.78;5005043;28;20554;-82
2023/12/23 03:52:32;;;;;;;3.50;1.40;;;;;;;7.22;100.00;153215.66;4998325;28;20457;-82
2023/12/23 03:54:58;;;;;;;2.03;1.20;;;;;;;7.24;100.00;153220.81;4990452;28;20476;-83
2023/12/23 03:57:25;;;;;;;2.17;1.30;;;;;;;7.26;100.00;153225.97;4992598;28;20477;-81
2023/12/23 03:59:51;;;;;;;3.60;1.07;;;;;;;7.23;100.00;153218.22;4988068;28;20896;-81
2023/12/23 04:02:18;;;;;;;1.30;0.80;;;;;;;7.24;100.00;153220.81;5003430;28;20518;-81
2023/12/23 04:04:46;;;;;;;1.57;1.40;;;;;;;7.22;100.00;153215.66;4990331;28;21001;-82
2023/12/23 04:07:13;;;;;;;2.30;1.10;;;;;;;7.23;100.00;153216.91;5002162;28;20452;-81
2023/12/23 04:09:39;;;;;;;1.73;1.27;;;;;;;7.23;100.00;153218.22;5011300;28;20452;-82
2023/12/23 04:12:06;;;;;;;2.07;1.27;;;;;;;7.23;100.00;153218.22;5006980;28;20460;-81
2023/12/23 04:14:35;;;;;;;1.80;1.00;;;;;;;7.23;100.00;153216.91;5000156;28;20569;-81
2023/12/23 04:17:01;;;;;;;2.57;1.20;;;;;;;7.21;100.00;153213.06;5001837;28;20967;-80
2023/12/23 04:19:28;;;;;;;2.40;1.47;;;;;;;7.19;100.00;153206.63;4979295;28;20991;-82
2023/12/23 04:21:56;;;;;;;2.20;1.23;;;;;;;7.17;100.00;153202.75;4987685;28;20527;-82
2023/12/23 04:24:22;;;;;;;3.83;1.23;;;;;;;7.18;100.00;153205.31;4993380;28;20478;-82
2023/12/23 04:26:50;;;;;;;2.70;1.53;;;;;;;7.17;100.00;153202.75;4993598;28;20967;-81
2023/12/23 04:29:17;;;;;;;2.83;1.37;;;;;;;7.16;100.00;153200.16;4983240;28;20550;-82
2023/12/23 04:31:43;;;;;;;3.50;1.30;;;;;;;7.18;100.00;153205.31;5010675;28;20561;-82
2023/12/23 04:34:11;;;;;;;1.97;1.10;;;;;;;7.15;100.00;153197.56;5007612;28;20464;-82
2023/12/23 04:36:38;;;;;;;1.50;1.00;;;;;;;7.13;100.00;153192.41;4986582;28;20555;-82
2023/12/23 04:39:06;;;;;;;1.60;1.07;;;;;;;7.12;100.00;153189.81;5004388;28;20560;-81
2023/12/23 04:41:33;;;;;;;2.57;1.37;;;;;;;7.13;100.00;153191.09;4991909;28;20473;-82
2023/12/23 04:44:00;;;;;;;2.83;0.93;;;;;;;7.12;100.00;153189.81;5008716;28;20445;-82
2023/12/23 04:46:27;;;;;;;2.03;1.00;;;;;;;7.14;100.00;153195.00;4980561;28;20472;-82
2023/12/23 04:48:53;;;;;;;1.63;1.00;;;;;;;7.15;100.00;153197.56;5010854;28;20461;-81
2023/12/23 04:51:20;;;;;;;1.77;1.33;;;;;;;7.16;100.00;153198.84;5009972;28;20478;-82
2023/12/23 04:53:47;;;;;;;1.10;0.77;;;;;;;7.16;100.00;153200.16;5000400;28;20967;-81
2023/12/23 04:56:15;;;;;;;3.43;1.17;;;;;;;7.15;100.00;153197.56;4991803;28;21340;-82
2023/12/23 04:58:41;;;;;;;1.93;1.10;;;;;;;7.15;100.00;153196.25;5007939;28;20456;-81
2023/12/23 05:01:08;;;;;;;3.00;1.00;;;;;;;7.15;100.00;153197.56;4998835;28;21024;-81
2023/12/23 05:03:34;;;;;;;1.73;1.07;;;;;;;7.13;100.00;153191.09;5001187;28;20839;-81
2023/12/23 05:06:01;;;;;;;2.10;0.83;;;;;;;7.16;100.00;153200.16;5002476;28;20461;-82
2023/12/23 05:08:27;;;;;;;1.77;1.20;;;;;;;7.19;100.00;153207.91;4988417;28;20457;-82
2023/12/23 05:10:54;;;;;;;0.87;0.50;;;;;;;7.15;100.00;153197.56;5008628;28;20456;-82
2023/12/23 05:13:23;;;;;;;2.13;0.90;;;;;;;7.16;100.00;153198.84;5007508;28;20533;-82
2023/12/23 05:15:49;;;;;;;1.53;0.70;;;;;;;7.17;100.00;153202.75;4992648;28;20451;-82
2023/12/23 05:18:16;;;;;;;1.60;1.00;;;;;;;7.17;100.00;153202.75;4974496;28;20453;-82
2023/12/23 05:20:43;;;;;;;1.30;0.60;;;;;;;7.16;100.00;153200.16;5001326;28;20459;-82
2023/12/23 05:23:09;;;;;;;1.20;0.80;;;;;;;7.15;100.00;153197.56;4986683;28;20455;-81
2023/12/23 05:25:36;;;;;;;1.00;0.57;;;;;;;7.17;100.00;153201.47;4970237;28;20460;-82
2023/12/23 05:28:02;;;;;;;1.03;0.57;;;;;;;7.17;100.00;153202.75;4991548;28;21021;-81
2023/12/23 05:30:31;;;;;;;2.23;0.70;;;;;;;7.16;100.00;153200.16;4977728;28;20493;-81
2023/12/23 05:32:57;;;;;;;0.90;0.40;;;;;;;7.16;100.00;153198.84;5000758;28;20819;-82
2023/12/23 05:35:24;;;;;;;1.10;0.50;;;;;;;7.16;100.00;153198.84;5000932;28;20534;-82
2023/12/23 05:37:50;;;;;;;2.20;0.30;;;;;;;7.18;100.00;153205.31;5011114;28;20499;-81
2023/12/23 05:40:17;;;;;;;1.00;0.50;;;;;;;7.16;100.00;153198.84;4989205;28;20457;-81
2023/12/23 05:42:43;;;;;;;1.70;0.47;;;;;;;7.14;100.00;153195.00;4997665;28;20857;-81
2023/12/23 05:45:10;;;;;;;0.90;0.50;;;;;;;7.16;100.00;153200.16;4993558;28;20452;-83
2023/12/23 05:47:38;;;;;;;1.63;0.40;;;;;;;7.16;100.00;153200.16;5004597;28;20824;-81
2023/12/23 05:50:05;;;;;;;2.10;0.50;;;;;;;7.20;100.00;153210.47;5006275;28;20863;-81
2023/12/23 05:52:32;;;;;;;1.93;0.60;;;;;;;7.16;100.00;153200.16;5002606;28;20502;-81
2023/12/23 05:54:58;;;;;;;0.90;0.30;;;;;;;7.15;100.00;153197.56;4996378;28;21394;-81
2023/12/23 05:57:25;;;;;;;0.90;0.30;;;;;;;7.15;100.00;153197.56;4981806;28;20479;-81
2023/12/23 05:59:51;;;;;;;0.90;0.30;;;;;;;7.13;100.00;153192.41;5005780;28;21002;-81
2023/12/23 06:02:18;;;;;;;0.90;0.50;;;;;;;7.14;100.00;153193.72;4999730;28;20456;-80
2023/12/23 06:04:46;;;;;;;0.80;0.30;;;;;;;7.10;100.00;153184.66;5004483;28;20468;-81
2023/12/23 06:07:13;;;;;;;0.77;0.33;;;;;;;7.08;100.00;153179.50;4995842;28;20812;-81
2023/12/23 06:09:40;;;;;;;0.90;0.40;;;;;;;7.09;100.00;153180.81;4988966;28;20566;-81
2023/12/23 06:12:07;;;;;;;1.03;0.30;;;;;;;7.07;100.00;153175.66;4997728;28;20520;-81
2023/12/23 06:14:36;;;;;;;0.80;0.30;;;;;;;7.05;100.00;153170.44;4996040;28;20905;-81
2023/12/23 06:17:02;;;;;;;0.70;0.20;;;;;;;7.05;100.00;153171.75;4996899;28;20559;-81
2023/12/23 06:19:29;;;;;;;0.70;0.30;;;;;;;7.05;100.00;153171.75;4991049;28;20462;-81
2023/12/23 06:21:57;;;;;;;0.80;0.30;;;;;;;7.04;100.00;153167.91;4997661;28;20863;-81
2023/12/23 06:24:23;;;;;;;0.77;0.30;;;;;;;7.02;100.00;153162.69;4997395;28;20468;-81
2023/12/23 06:26:50;;;;;;;0.80;0.30;;;;;;;6.99;100.00;153156.25;4996452;28;20452;-81
2023/12/23 06:29:16;;;;;;;0.70;0.30;;;;;;;6.99;100.00;153156.25;4992350;28;20468;-81
2023/12/23 06:31:43;;;;;;;0.70;0.23;;;;;;;6.99;100.00;153155.00;4998354;28;20460;-81
2023/12/23 06:34:09;;;;;;;1.07;0.40;;;;;;;6.97;100.00;153151.09;4995283;28;20464;-81
2023/12/23 06:36:36;;;;;;;0.80;0.30;;;;;;;6.96;100.00;153148.53;4980062;28;20481;-81
2023/12/23 06:39:04;;;;;;;0.80;0.30;;;;;;;6.99;100.00;153155.00;4991756;28;20820;-82
2023/12/23 06:41:31;;;;;;;0.90;0.23;;;;;;;6.98;100.00;153153.69;4996981;28;20452;-81
2023/12/23 06:43:57;;;;;;;0.70;0.30;;;;;;;6.97;100.00;153149.78;4996004;28;20459;-82
2023/12/23 06:46:24;;;;;;;0.90;0.40;;;;;;;6.99;100.00;153156.25;4996210;28;20452;-81
2023/12/23 06:48:52;;;;;;;0.80;0.40;;;;;;;6.96;100.00;153148.53;4995723;28;20563;-81
2023/12/23 06:51:18;;;;;;;1.00;0.47;;;;;;;6.99;100.00;153155.00;4997108;28;20453;-82
2023/12/23 06:53:45;;;;;;;0.80;0.30;;;;;;;7.00;100.00;153158.84;4994046;28;20457;-82
2023/12/23 06:56:13;;;;;;;0.77;0.37;;;;;;;7.01;100.00;153160.13;4978878;28;20893;-82
2023/12/23 06:58:39;;;;;;;0.80;0.37;;;;;;;7.00;100.00;153158.84;4998177;28;20441;-82
2023/12/23 07:01:06;;;;;;;1.63;0.50;;;;;;;6.99;100.00;153155.00;4981176;28;20468;-82
2023/12/23 07:03:33;;;;;;;1.10;0.40;;;;;;;7.00;100.00;153158.84;4997862;28;20987;-82
2023/12/23 07:05:59;;;;;;;0.90;0.50;;;;;;;7.01;100.00;153160.13;4995265;28;20453;-82
2023/12/23 07:08:26;;;;;;;1.40;0.37;;;;;;;7.03;100.00;153165.28;4994111;28;20459;-83
2023/12/23 07:10:52;;;;;;;0.90;0.40;;;;;;;7.02;100.00;153164.00;5012037;28;20451;-82
2023/12/23 07:13:20;;;;;;;0.80;0.40;;;;;;;7.03;100.00;153166.59;5017962;28;20439;-82
2023/12/23 07:15:47;;;;;;;0.80;0.30;;;;;;;7.03;100.00;153165.28;5017994;28;20457;-82
2023/12/23 07:18:13;;;;;;;0.80;0.40;;;;;;;7.03;100.00;153166.59;5010427;28;20627;-82
2023/12/23 07:20:42;;;;;;;0.70;0.30;;;;;;;7.02;100.00;153164.00;5001640;28;20552;-82
2023/12/23 07:23:08;;;;;;;1.87;1.10;;;;;;;7.00;100.00;153158.84;5010950;28;20452;-82
2023/12/23 07:25:35;;;;;;;1.40;1.03;;;;;;;7.02;100.00;153164.00;4998698;28;20485;-82
2023/12/23 07:28:01;;;;;;;1.70;0.83;;;;;;;6.99;100.00;153156.25;5001913;28;20510;-82
2023/12/23 07:30:29;;;;;;;1.87;0.77;;;;;;;7.00;100.00;153158.84;5003563;28;20460;-81
2023/12/23 07:32:56;;;;;;;0.90;0.40;;;;;;;7.01;100.00;153160.13;5014666;28;20457;-83
2023/12/23 07:35:22;;;;;;;0.90;0.40;;;;;;;6.98;100.00;153153.69;5012979;28;20469;-83
2023/12/23 07:37:50;;;;;;;0.80;0.33;;;;;;;6.97;100.00;153151.09;5003562;28;20512;-82
2023/12/23 07:40:17;;;;;;;1.33;0.40;;;;;;;6.94;100.00;153143.34;4998389;28;20481;-82
2023/12/23 07:42:43;;;;;;;1.23;0.50;;;;;;;6.95;100.00;153145.94;4996252;28;20539;-82
2023/12/23 07:45:11;;;;;;;0.90;0.50;;;;;;;6.96;100.00;153147.25;5000161;28;20526;-83
2023/12/23 07:47:41;;;;;;;1.27;0.57;;;;;;;6.98;100.00;153153.69;4994852;28;20455;-83
2023/12/23 07:50:10;;;;;;;0.90;0.40;;;;;;;6.98;100.00;153153.69;4994360;28;20457;-83
2023/12/23 07:52:36;;;;;;;1.00;0.43;;;;;;;7.01;100.00;153160.13;4980901;28;20457;-81
2023/12/23 07:55:03;;;;;;;0.83;0.40;;;;;;;7.01;100.00;153160.13;4999875;28;20461;-83
2023/12/23 07:57:30;;;;;;;3.53;0.60;;;;;;;7.02;100.00;153164.00;4997578;28;20882;-82
2023/12/23 07:59:56;;;;;;;0.87;0.30;;;;;;;7.05;100.00;153171.75;4999365;28;20622;-82
2023/12/23 08:02:23;;;;;;;0.90;0.40;;;;;;;7.02;100.00;153164.00;4997140;28;20467;-82
2023/12/23 08:04:51;;;;;;;0.90;0.50;;;;;;;7.03;100.00;153165.28;4999168;28;20555;-82
2023/12/23 08:07:17;;;;;;;1.00;0.57;;;;;;;7.03;100.00;153166.59;4994524;28;20523;-82
2023/12/23 08:09:44;;;;;;;0.90;0.50;;;;;;;7.03;100.00;153165.28;4996194;28;20464;-82
2023/12/23 08:12:11;;;;;;;1.23;0.40;;;;;;;7.02;100.00;153164.00;4997738;28;20469;-82
2023/12/23 08:14:40;;;;;;;0.80;0.40;;;;;;;7.05;100.00;153171.75;4998642;28;20456;-82
2023/12/23 08:17:07;;;;;;;1.20;0.50;;;;;;;7.04;100.00;153167.91;4996597;28;20476;-81
2023/12/23 08:19:33;;;;;;;2.50;0.40;;;;;;;7.06;100.00;153174.34;4996536;28;20460;-82
2023/12/23 08:22:01;;;;;;;1.10;0.30;;;;;;;7.08;100.00;153179.50;4995328;28;20452;-82
2023/12/23 08:24:28;;;;;;;0.83;0.40;;;;;;;7.11;100.00;153185.94;4974697;28;20999;-81
2023/12/23 08:26:54;;;;;;;0.80;0.30;;;;;;;7.12;100.00;153189.81;4987323;28;20852;-82
2023/12/23 08:29:21;;;;;;;1.27;0.30;;;;;;;7.13;100.00;153191.09;4990389;28;20456;-82
2023/12/23 08:31:48;;;;;;;0.80;0.20;;;;;;;7.17;100.00;153202.75;4987053;28;20444;-82
2023/12/23 08:34:14;;;;;;;0.70;0.30;;;;;;;7.15;100.00;153196.25;4997173;28;20815;-81
2023/12/23 08:36:44;;;;;;;0.90;0.33;;;;;;;7.14;100.00;153193.72;4999404;28;20917;-82
2023/12/23 08:39:12;;;;;;;2.67;0.40;;;;;;;7.14;100.00;153195.00;4997683;28;20478;-83
2023/12/23 08:41:38;;;;;;;0.80;0.40;;;;;;;7.15;100.00;153197.56;4987354;28;20457;-81
2023/12/23 08:44:06;;;;;;;0.70;0.30;;;;;;;7.16;100.00;153198.84;4999024;28;20460;-82
2023/12/23 08:46:32;;;;;;;1.00;0.50;;;;;;;7.18;100.00;153205.31;5001174;28;20552;-82
2023/12/23 08:48:59;;;;;;;0.73;0.23;;;;;;;7.18;100.00;153205.31;4999868;28;20810;-84
2023/12/23 08:51:29;;;;;;;1.40;0.30;;;;;;;7.16;100.00;153200.16;4992146;28;20458;-82
2023/12/23 08:53:56;;;;;;;1.00;0.53;;;;;;;7.16;100.00;153198.84;4998101;28;20821;-82
2023/12/23 08:56:24;;;;;;;0.80;0.30;;;;;;;7.18;100.00;153205.31;4987117;28;20450;-82
2023/12/23 08:58:50;;;;;;;1.00;0.30;;;;;;;7.19;100.00;153207.91;4994493;28;21074;-82
2023/12/23 09:01:18;;;;;;;0.70;0.30;;;;;;;7.17;100.00;153202.75;4986996;28;20448;-82
2023/12/23 09:03:45;;;;;;;0.70;0.30;;;;;;;7.21;100.00;153213.06;4999504;28;20514;-82
2023/12/23 09:06:12;;;;;;;2.00;0.53;;;;;;;7.22;100.00;153215.66;4996134;28;20441;-82
2023/12/23 09:08:39;;;;;;;0.90;0.47;;;;;;;7.20;100.00;153210.47;4998911;28;20791;-82
2023/12/23 09:11:06;;;;;;;0.90;0.40;;;;;;;7.23;100.00;153216.91;4999624;28;20764;-82
2023/12/23 09:13:34;;;;;;;0.83;0.30;;;;;;;7.25;100.00;153223.38;4991700;28;20456;-82
2023/12/23 09:16:03;;;;;;;0.73;0.37;;;;;;;7.27;100.00;153228.56;5001366;28;20447;-82
2023/12/23 09:18:29;;;;;;;1.07;0.30;;;;;;;7.26;100.00;153225.97;4997264;28;20472;-82
2023/12/23 09:20:56;;;;;;;0.80;0.30;;;;;;;7.27;100.00;153228.56;5000112;28;20476;-82
2023/12/23 09:23:22;;;;;;;0.87;0.30;;;;;;;7.31;100.00;153238.88;5002006;28;20479;-82
2023/12/23 09:25:50;;;;;;;1.20;0.50;;;;;;;7.35;100.00;153249.25;4999343;28;20514;-82
2023/12/23 09:28:17;;;;;;;0.77;0.30;;;;;;;7.38;100.00;153254.41;5003007;28;20540;-82
2023/12/23 09:30:45;;;;;;;0.80;0.30;;;;;;;7.38;100.00;153254.41;5001537;28;20467;-83
2023/12/23 09:33:11;;;;;;;0.80;0.40;;;;;;;7.38;100.00;153255.69;5003231;28;20449;-83
2023/12/23 09:35:38;;;;;;;0.70;0.30;;;;;;;7.40;100.00;153259.53;4994231;28;20828;-82
2023/12/23 09:38:05;;;;;;;0.80;0.40;;;;;;;7.44;100.00;153269.91;4996265;28;20534;-82
2023/12/23 09:40:31;;;;;;;0.80;0.30;;;;;;;7.46;100.00;153275.06;4994792;28;20556;-82
2023/12/23 09:42:59;;;;;;;1.67;0.40;;;;;;;7.47;100.00;153278.91;4995476;28;20577;-82
2023/12/23 09:45:26;;;;;;;0.90;0.40;;;;;;;7.50;100.00;153286.66;4996400;28;20498;-84
2023/12/23 09:47:54;;;;;;;0.80;0.30;;;;;;;7.49;100.00;153282.81;4998560;28;20445;-82
2023/12/23 09:50:20;;;;;;;1.20;0.30;;;;;;;7.48;100.00;153281.50;4992787;28;20455;-82
2023/12/23 09:52:51;;;;;;;1.00;0.37;;;;;;;7.47;100.00;153277.63;4995141;28;20456;-82
2023/12/23 09:55:18;;;;;;;0.90;0.30;;;;;;;7.50;100.00;153285.38;4996374;28;20468;-82
2023/12/23 09:57:44;;;;;;;0.80;0.20;;;;;;;7.50;100.00;153285.38;4985580;28;20481;-82
2023/12/23 10:00:12;;;;;;;0.70;0.20;;;;;;;7.47;100.00;153277.63;4997462;28;20463;-82
2023/12/23 10:02:40;;;;;;;0.70;0.20;;;;;;;7.49;100.00;153282.81;4997743;28;20540;-82
2023/12/23 10:05:09;;;;;;;0.70;0.30;;;;;;;7.48;100.00;153280.22;4999542;28;20516;-82
2023/12/23 10:07:35;;;;;;;0.93;0.40;;;;;;;7.50;100.00;153286.66;5003208;28;20447;-82
2023/12/23 10:10:03;;;;;;;0.77;0.30;;;;;;;7.50;100.00;153286.66;4997413;28;20903;-82
2023/12/23 10:12:30;;;;;;;0.80;0.30;;;;;;;7.53;100.00;153293.13;4988152;28;20449;-75
2023/12/23 10:14:56;;;;;;;0.80;0.30;;;;;;;7.51;100.00;153287.97;4999605;28;20464;-75
2023/12/23 10:17:23;;;;;;;0.80;0.30;;;;;;;7.54;100.00;153295.72;4997643;28;20540;-75
2023/12/23 10:19:49;;;;;;;0.70;0.20;;;;;;;7.55;100.00;153299.59;4997865;28;20488;-75
2023/12/23 10:22:17;;;;;;;0.70;0.20;;;;;;;7.56;100.00;153302.19;4998298;28;20778;-74
2023/12/23 10:24:54;;;;;;;0.80;0.30;;;;;;;7.57;100.00;153304.72;4998125;28;20480;-75
2023/12/23 10:27:21;;;;;;;0.70;0.30;;;;;;;7.59;100.00;153308.63;4997418;28;20452;-75
2023/12/23 10:29:49;;;;;;;1.07;0.50;;;;;;;7.57;100.00;153303.47;4992860;28;20461;-75
2023/12/23 10:32:16;;;;;;;0.97;0.40;;;;;;;7.56;100.00;153300.88;4975709;28;20531;-75
2023/12/23 10:34:44;;;;;;;0.90;0.30;;;;;;;7.58;100.00;153306.03;4994881;28;20972;-75
2023/12/23 10:37:12;;;;;;;0.87;0.30;;;;;;;7.59;100.00;153308.63;4994236;28;20465;-75
2023/12/23 10:39:45;;;;;;;0.90;0.40;;;;;;;7.58;100.00;153306.03;5000818;28;20495;-75
2023/12/23 10:42:19;;;;;;;0.83;0.50;;;;;;;7.59;100.00;153308.63;5000043;28;20861;-75
2023/12/23 10:44:46;;;;;;;1.00;0.40;;;;;;;7.59;100.00;153308.63;4990319;28;21266;-75
2023/12/23 10:47:13;;;;;;;2.10;0.50;;;;;;;7.62;100.00;153316.41;4997052;28;20457;-74
2023/12/23 10:49:42;;;;;;;1.30;0.53;;;;;;;7.63;100.00;153318.94;4996201;28;20452;-74
2023/12/23 10:52:09;;;;;;;0.93;0.47;;;;;;;7.65;100.00;153324.16;5000211;28;20452;-74
2023/12/23 10:54:37;;;;;;;0.70;0.20;;;;;;;7.64;100.00;153321.56;4990176;28;20516;-74
2023/12/23 10:57:06;;;;;;;1.43;0.40;;;;;;;7.63;100.00;153318.94;4997049;28;20507;-74
2023/12/23 10:59:32;;;;;;;1.90;0.90;;;;;;;7.63;100.00;153318.94;4999588;28;20524;-74
2023/12/23 11:02:02;;;;;;;1.43;0.40;;;;;;;7.65;100.00;153325.41;4998778;28;20460;-74
2023/12/23 11:04:29;;;;;;;0.80;0.30;;;;;;;7.67;100.00;153330.59;4980306;28;20480;-75
2023/12/23 11:06:58;;;;;;;1.10;0.50;;;;;;;7.71;100.00;153339.63;5000228;28;20455;-75
2023/12/23 11:09:25;;;;;;;0.70;0.20;;;;;;;7.69;100.00;153335.75;4997840;28;20504;-75
2023/12/23 11:11:52;;;;;;;0.77;0.23;;;;;;;7.67;100.00;153330.59;4997935;28;20460;-76
2023/12/23 11:14:20;;;;;;;0.90;0.40;;;;;;;7.70;100.00;153337.06;4996967;28;20828;-74
2023/12/23 11:16:50;;;;;;;1.13;0.40;;;;;;;7.69;100.00;153334.47;5001696;28;20456;-74
2023/12/23 11:19:17;;;;;;;0.80;0.40;;;;;;;7.69;100.00;153335.75;4995900;28;20482;-74
2023/12/23 11:21:44;;;;;;;0.80;0.30;;;;;;;7.70;100.00;153337.06;4999416;28;20815;-74
2023/12/23 11:24:31;;;;;;;0.70;0.23;;;;;;;7.67;100.00;153329.31;5001391;28;20457;-74